sensor_id;sensor_type;location;lat;lon;timestamp;temperature;humidity
43858;DHT22;29507;51.284;5.758;2023-04-29T00:01:01;10.10;99.90
43858;DHT22;29507;51.284;5.758;2023-04-29T00:03:27;10.00;99.90
43858;DHT22;29507;51.284;5.758;2023-04-29T00:05:59;10.00;99.90
43858;DHT22;29507;51.284;5.758;2023-04-29T00:08:25;9.90;99.90
43858;DHT22;29507;51.284;5.758;2023-04-29T00:10:51;9.90;99.90
43858;DHT22;29507;51.284;5.758;2023-04-29T00:13:16;9.90;99.90
43858;DHT22;29507;51.284;5.758;2023-04-29T00:15:42;9.90;99.90
43858;DHT22;29507;51.284;5.758;2023-04-29T00:18:08;9.90;99.90
43858;DHT22;29507;51.284;5.758;2023-04-29T00:20:34;9.90;99.90
43858;DHT22;29507;51.284;5.758;2023-04-29T00:22:59;9.90;99.90
43858;DHT22;29507;51.284;5.758;2023-04-29T00:25:25;9.90;99.90
43858;DHT22;29507;51.284;5.758;2023-04-29T00:27:51;9.80;99.90
43858;DHT22;29507;51.284;5.758;2023-04-29T00:30:17;9.80;99.90
43858;DHT22;29507;51.284;5.758;2023-04-29T00:32:42;9.80;99.90
43858;DHT22;29507;51.284;5.758;2023-04-29T00:35:09;9.80;99.90
43858;DHT22;29507;51.284;5.758;2023-04-29T00:37:35;9.70;99.90
43858;DHT22;29507;51.284;5.758;2023-04-29T00:40:00;9.80;99.90
43858;DHT22;29507;51.284;5.758;2023-04-29T00:42:26;9.80;99.90
43858;DHT22;29507;51.284;5.758;2023-04-29T00:44:53;9.80;99.90
43858;DHT22;29507;51.284;5.758;2023-04-29T00:47:18;9.70;99.90
43858;DHT22;29507;51.284;5.758;2023-04-29T00:49:44;9.70;99.90
43858;DHT22;29507;51.284;5.758;2023-04-29T00:52:10;9.70;99.90
43858;DHT22;29507;51.284;5.758;2023-04-29T00:54:36;9.70;99.90
43858;DHT22;29507;51.284;5.758;2023-04-29T00:57:03;9.70;99.90
43858;DHT22;29507;51.284;5.758;2023-04-29T00:59:30;9.70;99.90
43858;DHT22;29507;51.284;5.758;2023-04-29T01:02:01;9.60;99.90
43858;DHT22;29507;51.284;5.758;2023-04-29T01:04:27;9.60;99.90
43858;DHT22;29507;51.284;5.758;2023-04-29T01:07:04;9.60;99.90
43858;DHT22;29507;51.284;5.758;2023-04-29T01:12:40;9.50;99.90
43858;DHT22;29507;51.284;5.758;2023-04-29T01:15:21;9.50;99.90
43858;DHT22;29507;51.284;5.758;2023-04-29T01:18:14;9.50;99.90
43858;DHT22;29507;51.284;5.758;2023-04-29T01:20:42;9.50;99.90
43858;DHT22;29507;51.284;5.758;2023-04-29T01:23:09;9.50;99.90
43858;DHT22;29507;51.284;5.758;2023-04-29T01:25:35;9.50;99.90
43858;DHT22;29507;51.284;5.758;2023-04-29T01:28:04;9.50;99.90
43858;DHT22;29507;51.284;5.758;2023-04-29T01:30:44;9.40;99.90
43858;DHT22;29507;51.284;5.758;2023-04-29T01:41:39;9.20;99.90
43858;DHT22;29507;51.284;5.758;2023-04-29T01:44:09;9.20;99.90
43858;DHT22;29507;51.284;5.758;2023-04-29T01:46:37;9.10;99.90
43858;DHT22;29507;51.284;5.758;2023-04-29T01:49:04;9.10;99.90
43858;DHT22;29507;51.284;5.758;2023-04-29T01:51:32;9.00;99.90
43858;DHT22;29507;51.284;5.758;2023-04-29T01:53:58;9.00;99.90
43858;DHT22;29507;51.284;5.758;2023-04-29T01:56:24;9.00;99.90
43858;DHT22;29507;51.284;5.758;2023-04-29T01:58:50;8.90;99.90
43858;DHT22;29507;51.284;5.758;2023-04-29T02:01:15;8.90;99.90
43858;DHT22;29507;51.284;5.758;2023-04-29T02:03:41;8.90;99.90
43858;DHT22;29507;51.284;5.758;2023-04-29T02:06:06;8.90;99.90
43858;DHT22;29507;51.284;5.758;2023-04-29T02:08:32;8.90;99.90
43858;DHT22;29507;51.284;5.758;2023-04-29T02:10:58;8.90;99.90
43858;DHT22;29507;51.284;5.758;2023-04-29T02:13:24;8.90;99.90
43858;DHT22;29507;51.284;5.758;2023-04-29T02:15:50;8.90;99.90
43858;DHT22;29507;51.284;5.758;2023-04-29T02:18:15;8.90;99.90
43858;DHT22;29507;51.284;5.758;2023-04-29T02:20:42;8.90;99.90
43858;DHT22;29507;51.284;5.758;2023-04-29T02:23:08;8.90;99.90
43858;DHT22;29507;51.284;5.758;2023-04-29T02:25:33;8.80;99.90
43858;DHT22;29507;51.284;5.758;2023-04-29T02:27:59;8.80;99.90
43858;DHT22;29507;51.284;5.758;2023-04-29T02:30:24;8.80;99.90
43858;DHT22;29507;51.284;5.758;2023-04-29T02:32:50;8.80;99.90
43858;DHT22;29507;51.284;5.758;2023-04-29T02:35:16;8.80;99.90
43858;DHT22;29507;51.284;5.758;2023-04-29T02:37:41;8.80;99.90
43858;DHT22;29507;51.284;5.758;2023-04-29T02:40:07;8.70;99.90
43858;DHT22;29507;51.284;5.758;2023-04-29T02:42:33;8.70;99.90
43858;DHT22;29507;51.284;5.758;2023-04-29T02:44:58;8.70;99.90
43858;DHT22;29507;51.284;5.758;2023-04-29T02:47:25;8.60;99.90
43858;DHT22;29507;51.284;5.758;2023-04-29T02:49:50;8.60;99.90
43858;DHT22;29507;51.284;5.758;2023-04-29T02:52:16;8.60;99.90
43858;DHT22;29507;51.284;5.758;2023-04-29T02:54:42;8.60;99.90
43858;DHT22;29507;51.284;5.758;2023-04-29T02:57:07;8.60;99.90
43858;DHT22;29507;51.284;5.758;2023-04-29T02:59:33;8.60;99.90
43858;DHT22;29507;51.284;5.758;2023-04-29T03:01:59;8.60;99.90
43858;DHT22;29507;51.284;5.758;2023-04-29T03:04:26;8.60;99.90
43858;DHT22;29507;51.284;5.758;2023-04-29T03:06:54;8.60;99.90
43858;DHT22;29507;51.284;5.758;2023-04-29T03:09:21;8.60;99.90
43858;DHT22;29507;51.284;5.758;2023-04-29T03:11:48;8.60;99.90
43858;DHT22;29507;51.284;5.758;2023-04-29T03:14:13;8.60;99.90
43858;DHT22;29507;51.284;5.758;2023-04-29T03:16:39;8.60;99.90
43858;DHT22;29507;51.284;5.758;2023-04-29T03:19:04;8.50;99.90
43858;DHT22;29507;51.284;5.758;2023-04-29T03:21:30;8.50;99.90
43858;DHT22;29507;51.284;5.758;2023-04-29T03:23:57;8.50;99.90
43858;DHT22;29507;51.284;5.758;2023-04-29T03:26:22;8.50;99.90
43858;DHT22;29507;51.284;5.758;2023-04-29T03:28:48;8.50;99.90
43858;DHT22;29507;51.284;5.758;2023-04-29T03:31:14;8.50;99.90
43858;DHT22;29507;51.284;5.758;2023-04-29T03:33:41;8.50;99.90
43858;DHT22;29507;51.284;5.758;2023-04-29T03:36:06;8.50;99.90
43858;DHT22;29507;51.284;5.758;2023-04-29T03:38:33;8.50;99.90
43858;DHT22;29507;51.284;5.758;2023-04-29T03:40:58;8.50;99.90
43858;DHT22;29507;51.284;5.758;2023-04-29T03:43:25;8.50;99.90
43858;DHT22;29507;51.284;5.758;2023-04-29T03:45:50;8.50;99.90
43858;DHT22;29507;51.284;5.758;2023-04-29T03:48:16;8.40;99.90
43858;DHT22;29507;51.284;5.758;2023-04-29T03:50:42;8.40;99.90
43858;DHT22;29507;51.284;5.758;2023-04-29T03:53:08;8.40;99.90
43858;DHT22;29507;51.284;5.758;2023-04-29T03:55:33;8.40;99.90
43858;DHT22;29507;51.284;5.758;2023-04-29T03:57:59;8.30;99.90
43858;DHT22;29507;51.284;5.758;2023-04-29T04:00:24;8.30;99.90
43858;DHT22;29507;51.284;5.758;2023-04-29T04:02:51;8.40;99.90
43858;DHT22;29507;51.284;5.758;2023-04-29T04:05:16;8.30;99.90
43858;DHT22;29507;51.284;5.758;2023-04-29T04:07:45;8.30;99.90
43858;DHT22;29507;51.284;5.758;2023-04-29T04:10:11;8.30;99.90
43858;DHT22;29507;51.284;5.758;2023-04-29T04:12:36;8.30;99.90
43858;DHT22;29507;51.284;5.758;2023-04-29T04:15:02;8.30;99.90
43858;DHT22;29507;51.284;5.758;2023-04-29T04:17:28;8.30;99.90
43858;DHT22;29507;51.284;5.758;2023-04-29T04:19:57;8.30;99.90
43858;DHT22;29507;51.284;5.758;2023-04-29T04:22:23;8.40;99.90
43858;DHT22;29507;51.284;5.758;2023-04-29T04:24:48;8.40;99.90
43858;DHT22;29507;51.284;5.758;2023-04-29T04:27:14;8.40;99.90
43858;DHT22;29507;51.284;5.758;2023-04-29T04:29:39;8.40;99.90
43858;DHT22;29507;51.284;5.758;2023-04-29T04:32:05;8.30;99.90
43858;DHT22;29507;51.284;5.758;2023-04-29T04:34:30;8.30;99.90
43858;DHT22;29507;51.284;5.758;2023-04-29T04:36:56;8.40;99.90
43858;DHT22;29507;51.284;5.758;2023-04-29T04:39:22;8.30;99.90
43858;DHT22;29507;51.284;5.758;2023-04-29T04:41:48;8.30;99.90
43858;DHT22;29507;51.284;5.758;2023-04-29T04:44:13;8.30;99.90
43858;DHT22;29507;51.284;5.758;2023-04-29T04:46:39;8.30;99.90
43858;DHT22;29507;51.284;5.758;2023-04-29T04:49:04;8.30;99.90
43858;DHT22;29507;51.284;5.758;2023-04-29T04:51:30;8.30;99.90
43858;DHT22;29507;51.284;5.758;2023-04-29T04:53:56;8.30;99.90
43858;DHT22;29507;51.284;5.758;2023-04-29T04:56:21;8.30;99.90
43858;DHT22;29507;51.284;5.758;2023-04-29T04:58:47;8.30;99.90
43858;DHT22;29507;51.284;5.758;2023-04-29T05:01:12;8.30;99.90
43858;DHT22;29507;51.284;5.758;2023-04-29T05:03:38;8.30;99.90
43858;DHT22;29507;51.284;5.758;2023-04-29T05:06:04;8.30;99.90
43858;DHT22;29507;51.284;5.758;2023-04-29T05:08:29;8.30;99.90
43858;DHT22;29507;51.284;5.758;2023-04-29T05:10:55;8.30;99.90
43858;DHT22;29507;51.284;5.758;2023-04-29T05:13:22;8.30;99.90
43858;DHT22;29507;51.284;5.758;2023-04-29T05:15:47;8.30;99.90
43858;DHT22;29507;51.284;5.758;2023-04-29T05:18:13;8.30;99.90
43858;DHT22;29507;51.284;5.758;2023-04-29T05:20:39;8.30;99.90
43858;DHT22;29507;51.284;5.758;2023-04-29T05:23:04;8.30;99.90
43858;DHT22;29507;51.284;5.758;2023-04-29T05:25:30;8.30;99.90
43858;DHT22;29507;51.284;5.758;2023-04-29T05:27:56;8.30;99.90
43858;DHT22;29507;51.284;5.758;2023-04-29T05:30:21;8.20;99.90
43858;DHT22;29507;51.284;5.758;2023-04-29T05:32:47;8.30;99.90
43858;DHT22;29507;51.284;5.758;2023-04-29T05:35:13;8.30;99.90
43858;DHT22;29507;51.284;5.758;2023-04-29T05:37:40;8.30;99.90
43858;DHT22;29507;51.284;5.758;2023-04-29T05:40:06;8.30;99.90
43858;DHT22;29507;51.284;5.758;2023-04-29T05:42:32;8.30;99.90
43858;DHT22;29507;51.284;5.758;2023-04-29T05:44:57;8.30;99.90
43858;DHT22;29507;51.284;5.758;2023-04-29T05:47:23;8.40;99.90
43858;DHT22;29507;51.284;5.758;2023-04-29T05:49:49;8.40;99.90
43858;DHT22;29507;51.284;5.758;2023-04-29T05:52:14;8.40;99.90
43858;DHT22;29507;51.284;5.758;2023-04-29T05:54:40;8.40;99.90
43858;DHT22;29507;51.284;5.758;2023-04-29T05:57:06;8.40;99.90
43858;DHT22;29507;51.284;5.758;2023-04-29T05:59:32;8.40;99.90
43858;DHT22;29507;51.284;5.758;2023-04-29T06:01:58;8.50;99.90
43858;DHT22;29507;51.284;5.758;2023-04-29T06:04:24;8.50;99.90
43858;DHT22;29507;51.284;5.758;2023-04-29T06:06:51;8.50;99.90
43858;DHT22;29507;51.284;5.758;2023-04-29T06:09:20;8.50;99.90
43858;DHT22;29507;51.284;5.758;2023-04-29T06:11:46;8.50;99.90
43858;DHT22;29507;51.284;5.758;2023-04-29T06:14:12;8.50;99.90
43858;DHT22;29507;51.284;5.758;2023-04-29T06:16:38;8.50;99.90
43858;DHT22;29507;51.284;5.758;2023-04-29T06:19:04;8.60;99.90
43858;DHT22;29507;51.284;5.758;2023-04-29T06:21:30;8.60;99.90
43858;DHT22;29507;51.284;5.758;2023-04-29T06:23:56;8.60;99.90
43858;DHT22;29507;51.284;5.758;2023-04-29T06:26:22;8.60;99.90
43858;DHT22;29507;51.284;5.758;2023-04-29T06:28:48;8.60;99.90
43858;DHT22;29507;51.284;5.758;2023-04-29T06:31:14;8.70;99.90
43858;DHT22;29507;51.284;5.758;2023-04-29T06:33:39;8.70;99.90
43858;DHT22;29507;51.284;5.758;2023-04-29T06:36:05;8.70;99.90
43858;DHT22;29507;51.284;5.758;2023-04-29T06:38:31;8.70;99.90
43858;DHT22;29507;51.284;5.758;2023-04-29T06:40:56;8.80;99.90
43858;DHT22;29507;51.284;5.758;2023-04-29T06:43:25;8.80;99.90
43858;DHT22;29507;51.284;5.758;2023-04-29T06:45:51;8.80;99.90
43858;DHT22;29507;51.284;5.758;2023-04-29T06:48:16;8.80;99.90
43858;DHT22;29507;51.284;5.758;2023-04-29T06:50:53;8.80;99.90
43858;DHT22;29507;51.284;5.758;2023-04-29T06:53:19;8.80;99.90
43858;DHT22;29507;51.284;5.758;2023-04-29T06:55:44;8.80;99.90
43858;DHT22;29507;51.284;5.758;2023-04-29T06:58:16;8.90;99.90
43858;DHT22;29507;51.284;5.758;2023-04-29T07:00:46;8.90;99.90
43858;DHT22;29507;51.284;5.758;2023-04-29T07:03:13;8.90;99.90
43858;DHT22;29507;51.284;5.758;2023-04-29T07:05:39;8.90;99.90
43858;DHT22;29507;51.284;5.758;2023-04-29T07:08:06;9.00;99.90
43858;DHT22;29507;51.284;5.758;2023-04-29T07:10:32;8.90;99.90
43858;DHT22;29507;51.284;5.758;2023-04-29T07:12:58;8.90;99.90
43858;DHT22;29507;51.284;5.758;2023-04-29T07:15:25;8.90;99.90
43858;DHT22;29507;51.284;5.758;2023-04-29T07:17:51;8.90;99.90
43858;DHT22;29507;51.284;5.758;2023-04-29T07:20:16;8.80;99.90
43858;DHT22;29507;51.284;5.758;2023-04-29T07:22:42;8.80;99.90
43858;DHT22;29507;51.284;5.758;2023-04-29T07:25:08;8.80;99.90
43858;DHT22;29507;51.284;5.758;2023-04-29T07:27:35;8.80;99.90
43858;DHT22;29507;51.284;5.758;2023-04-29T07:30:01;8.80;99.90
43858;DHT22;29507;51.284;5.758;2023-04-29T07:32:27;8.80;99.90
43858;DHT22;29507;51.284;5.758;2023-04-29T07:34:53;8.80;99.90
43858;DHT22;29507;51.284;5.758;2023-04-29T07:37:19;8.80;99.90
43858;DHT22;29507;51.284;5.758;2023-04-29T07:39:44;8.80;99.90
43858;DHT22;29507;51.284;5.758;2023-04-29T07:42:10;8.80;99.90
43858;DHT22;29507;51.284;5.758;2023-04-29T07:44:36;8.80;99.90
43858;DHT22;29507;51.284;5.758;2023-04-29T07:47:02;8.90;99.90
43858;DHT22;29507;51.284;5.758;2023-04-29T07:49:27;9.00;99.90
43858;DHT22;29507;51.284;5.758;2023-04-29T07:51:53;9.00;99.90
43858;DHT22;29507;51.284;5.758;2023-04-29T07:54:18;9.30;99.90
43858;DHT22;29507;51.284;5.758;2023-04-29T07:56:45;9.50;99.90
43858;DHT22;29507;51.284;5.758;2023-04-29T07:59:10;9.80;99.90
43858;DHT22;29507;51.284;5.758;2023-04-29T08:01:36;10.00;99.90
43858;DHT22;29507;51.284;5.758;2023-04-29T08:04:02;10.20;99.90
43858;DHT22;29507;51.284;5.758;2023-04-29T08:06:27;10.40;99.90
43858;DHT22;29507;51.284;5.758;2023-04-29T08:08:53;10.50;99.90
43858;DHT22;29507;51.284;5.758;2023-04-29T08:11:21;10.60;99.90
43858;DHT22;29507;51.284;5.758;2023-04-29T08:13:49;10.70;99.90
43858;DHT22;29507;51.284;5.758;2023-04-29T08:16:14;10.90;99.90
43858;DHT22;29507;51.284;5.758;2023-04-29T08:18:40;11.10;99.90
43858;DHT22;29507;51.284;5.758;2023-04-29T08:21:06;11.20;99.90
43858;DHT22;29507;51.284;5.758;2023-04-29T08:23:31;11.30;99.90
43858;DHT22;29507;51.284;5.758;2023-04-29T08:25:57;11.40;99.90
43858;DHT22;29507;51.284;5.758;2023-04-29T08:28:23;11.60;99.90
43858;DHT22;29507;51.284;5.758;2023-04-29T08:30:49;11.70;99.90
43858;DHT22;29507;51.284;5.758;2023-04-29T08:33:15;11.90;99.90
43858;DHT22;29507;51.284;5.758;2023-04-29T08:35:41;11.90;99.90
43858;DHT22;29507;51.284;5.758;2023-04-29T08:38:08;12.00;99.90
43858;DHT22;29507;51.284;5.758;2023-04-29T08:40:35;12.20;99.90
43858;DHT22;29507;51.284;5.758;2023-04-29T08:43:02;12.60;99.90
43858;DHT22;29507;51.284;5.758;2023-04-29T08:45:29;12.90;99.90
43858;DHT22;29507;51.284;5.758;2023-04-29T08:47:57;12.90;99.90
43858;DHT22;29507;51.284;5.758;2023-04-29T08:50:23;12.80;99.90
43858;DHT22;29507;51.284;5.758;2023-04-29T08:52:50;12.70;99.90
43858;DHT22;29507;51.284;5.758;2023-04-29T08:55:16;12.60;99.90
43858;DHT22;29507;51.284;5.758;2023-04-29T08:57:43;12.40;99.90
43858;DHT22;29507;51.284;5.758;2023-04-29T09:00:10;12.20;99.90
43858;DHT22;29507;51.284;5.758;2023-04-29T09:02:49;12.10;99.90
43858;DHT22;29507;51.284;5.758;2023-04-29T09:05:15;11.90;99.90
43858;DHT22;29507;51.284;5.758;2023-04-29T09:07:41;11.90;99.90
43858;DHT22;29507;51.284;5.758;2023-04-29T09:10:08;11.80;99.90
43858;DHT22;29507;51.284;5.758;2023-04-29T09:12:35;11.90;99.90
43858;DHT22;29507;51.284;5.758;2023-04-29T09:15:01;12.00;99.90
43858;DHT22;29507;51.284;5.758;2023-04-29T09:17:43;12.20;99.90
43858;DHT22;29507;51.284;5.758;2023-04-29T09:22:52;12.50;99.90
43858;DHT22;29507;51.284;5.758;2023-04-29T09:25:18;12.80;99.90
43858;DHT22;29507;51.284;5.758;2023-04-29T09:27:44;12.90;99.90
43858;DHT22;29507;51.284;5.758;2023-04-29T09:30:10;12.90;99.90
43858;DHT22;29507;51.284;5.758;2023-04-29T09:32:37;12.70;99.90
43858;DHT22;29507;51.284;5.758;2023-04-29T09:37:48;12.60;99.90
43858;DHT22;29507;51.284;5.758;2023-04-29T09:40:33;12.90;99.90
43858;DHT22;29507;51.284;5.758;2023-04-29T09:42:59;13.20;99.90
43858;DHT22;29507;51.284;5.758;2023-04-29T09:45:36;13.30;99.90
43858;DHT22;29507;51.284;5.758;2023-04-29T09:48:05;13.50;99.90
43858;DHT22;29507;51.284;5.758;2023-04-29T09:50:32;13.50;99.90
43858;DHT22;29507;51.284;5.758;2023-04-29T09:52:58;13.60;99.90
43858;DHT22;29507;51.284;5.758;2023-04-29T09:55:24;13.60;99.90
43858;DHT22;29507;51.284;5.758;2023-04-29T09:57:52;13.50;99.90
43858;DHT22;29507;51.284;5.758;2023-04-29T10:00:17;13.40;99.90
43858;DHT22;29507;51.284;5.758;2023-04-29T10:02:45;13.50;99.90
43858;DHT22;29507;51.284;5.758;2023-04-29T10:05:13;13.60;99.90
43858;DHT22;29507;51.284;5.758;2023-04-29T10:07:40;13.60;99.90
43858;DHT22;29507;51.284;5.758;2023-04-29T10:10:06;13.60;99.90
43858;DHT22;29507;51.284;5.758;2023-04-29T10:12:36;13.70;99.90
43858;DHT22;29507;51.284;5.758;2023-04-29T10:15:16;13.90;99.90
43858;DHT22;29507;51.284;5.758;2023-04-29T10:20:29;14.60;99.90
43858;DHT22;29507;51.284;5.758;2023-04-29T10:22:56;14.80;99.90
43858;DHT22;29507;51.284;5.758;2023-04-29T10:25:24;14.80;99.90
43858;DHT22;29507;51.284;5.758;2023-04-29T10:27:54;15.00;99.90
43858;DHT22;29507;51.284;5.758;2023-04-29T10:30:20;15.20;99.90
43858;DHT22;29507;51.284;5.758;2023-04-29T10:32:47;15.40;99.90
43858;DHT22;29507;51.284;5.758;2023-04-29T10:35:15;15.50;99.90
43858;DHT22;29507;51.284;5.758;2023-04-29T10:37:42;15.50;99.90
43858;DHT22;29507;51.284;5.758;2023-04-29T10:40:21;15.50;99.90
43858;DHT22;29507;51.284;5.758;2023-04-29T10:42:51;15.50;99.90
43858;DHT22;29507;51.284;5.758;2023-04-29T10:45:21;15.60;99.90
43858;DHT22;29507;51.284;5.758;2023-04-29T10:53:16;15.80;99.90
43858;DHT22;29507;51.284;5.758;2023-04-29T10:55:42;15.70;99.90
43858;DHT22;29507;51.284;5.758;2023-04-29T11:01:05;15.50;99.90
43858;DHT22;29507;51.284;5.758;2023-04-29T11:03:51;15.40;99.90
43858;DHT22;29507;51.284;5.758;2023-04-29T11:06:21;15.50;99.90
43858;DHT22;29507;51.284;5.758;2023-04-29T11:08:59;15.60;99.90
43858;DHT22;29507;51.284;5.758;2023-04-29T11:11:25;15.80;99.90
43858;DHT22;29507;51.284;5.758;2023-04-29T11:13:51;15.90;99.90
43858;DHT22;29507;51.284;5.758;2023-04-29T11:16:25;16.30;99.90
43858;DHT22;29507;51.284;5.758;2023-04-29T11:19:07;16.70;99.90
43858;DHT22;29507;51.284;5.758;2023-04-29T11:21:36;16.90;99.90
43858;DHT22;29507;51.284;5.758;2023-04-29T11:24:02;17.30;99.90
43858;DHT22;29507;51.284;5.758;2023-04-29T11:26:34;17.50;99.90
43858;DHT22;29507;51.284;5.758;2023-04-29T11:29:00;18.00;99.90
43858;DHT22;29507;51.284;5.758;2023-04-29T11:31:32;18.10;99.90
43858;DHT22;29507;51.284;5.758;2023-04-29T11:33:58;18.30;99.90
43858;DHT22;29507;51.284;5.758;2023-04-29T11:36:25;18.30;99.90
43858;DHT22;29507;51.284;5.758;2023-04-29T11:38:52;18.30;99.90
43858;DHT22;29507;51.284;5.758;2023-04-29T11:41:18;18.00;99.90
43858;DHT22;29507;51.284;5.758;2023-04-29T11:43:47;17.60;99.90
43858;DHT22;29507;51.284;5.758;2023-04-29T11:46:18;17.60;99.90
43858;DHT22;29507;51.284;5.758;2023-04-29T11:48:48;17.50;99.90
43858;DHT22;29507;51.284;5.758;2023-04-29T11:51:17;17.30;99.90
43858;DHT22;29507;51.284;5.758;2023-04-29T11:53:47;16.90;99.90
43858;DHT22;29507;51.284;5.758;2023-04-29T11:56:12;16.60;99.90
43858;DHT22;29507;51.284;5.758;2023-04-29T11:58:38;16.30;99.90
43858;DHT22;29507;51.284;5.758;2023-04-29T12:01:04;16.20;99.90
43858;DHT22;29507;51.284;5.758;2023-04-29T12:03:31;16.10;99.90
43858;DHT22;29507;51.284;5.758;2023-04-29T12:05:57;16.20;99.90
43858;DHT22;29507;51.284;5.758;2023-04-29T12:08:26;16.10;99.90
43858;DHT22;29507;51.284;5.758;2023-04-29T12:10:56;16.00;99.90
43858;DHT22;29507;51.284;5.758;2023-04-29T12:13:27;15.80;99.90
43858;DHT22;29507;51.284;5.758;2023-04-29T12:15:53;15.90;99.90
43858;DHT22;29507;51.284;5.758;2023-04-29T12:18:20;15.80;99.90
43858;DHT22;29507;51.284;5.758;2023-04-29T12:20:48;15.80;99.90
43858;DHT22;29507;51.284;5.758;2023-04-29T12:23:21;15.70;99.90
43858;DHT22;29507;51.284;5.758;2023-04-29T12:25:51;15.80;99.90
43858;DHT22;29507;51.284;5.758;2023-04-29T12:28:18;15.60;99.90
43858;DHT22;29507;51.284;5.758;2023-04-29T12:30:48;15.70;99.90
43858;DHT22;29507;51.284;5.758;2023-04-29T12:33:27;15.80;99.90
43858;DHT22;29507;51.284;5.758;2023-04-29T12:35:57;15.80;99.90
43858;DHT22;29507;51.284;5.758;2023-04-29T12:38:24;16.00;99.90
43858;DHT22;29507;51.284;5.758;2023-04-29T12:40:54;16.00;99.90
43858;DHT22;29507;51.284;5.758;2023-04-29T12:43:31;16.00;99.90
43858;DHT22;29507;51.284;5.758;2023-04-29T12:46:07;16.00;99.90
43858;DHT22;29507;51.284;5.758;2023-04-29T12:48:37;15.90;99.90
43858;DHT22;29507;51.284;5.758;2023-04-29T12:51:04;15.80;99.90
43858;DHT22;29507;51.284;5.758;2023-04-29T12:53:30;15.90;99.90
43858;DHT22;29507;51.284;5.758;2023-04-29T12:55:56;15.90;99.90
43858;DHT22;29507;51.284;5.758;2023-04-29T12:58:22;15.90;99.90
43858;DHT22;29507;51.284;5.758;2023-04-29T13:00:48;15.90;99.90
43858;DHT22;29507;51.284;5.758;2023-04-29T13:03:14;16.00;99.90
43858;DHT22;29507;51.284;5.758;2023-04-29T13:05:39;16.10;99.90
43858;DHT22;29507;51.284;5.758;2023-04-29T13:08:06;16.10;99.90
43858;DHT22;29507;51.284;5.758;2023-04-29T13:10:32;16.20;99.90
43858;DHT22;29507;51.284;5.758;2023-04-29T13:12:58;16.20;99.90
43858;DHT22;29507;51.284;5.758;2023-04-29T13:15:24;16.10;99.90
43858;DHT22;29507;51.284;5.758;2023-04-29T13:17:50;15.90;99.90
43858;DHT22;29507;51.284;5.758;2023-04-29T13:20:16;15.80;99.90
43858;DHT22;29507;51.284;5.758;2023-04-29T13:22:42;15.70;99.90
43858;DHT22;29507;51.284;5.758;2023-04-29T13:25:09;15.50;99.90
43858;DHT22;29507;51.284;5.758;2023-04-29T13:27:35;15.30;99.90
43858;DHT22;29507;51.284;5.758;2023-04-29T13:30:01;15.10;99.90
43858;DHT22;29507;51.284;5.758;2023-04-29T13:32:26;15.10;99.90
43858;DHT22;29507;51.284;5.758;2023-04-29T13:34:52;15.10;99.90
43858;DHT22;29507;51.284;5.758;2023-04-29T13:37:18;15.10;99.90
43858;DHT22;29507;51.284;5.758;2023-04-29T13:39:44;15.20;99.90
43858;DHT22;29507;51.284;5.758;2023-04-29T13:42:10;15.50;99.90
43858;DHT22;29507;51.284;5.758;2023-04-29T13:44:36;15.60;99.90
43858;DHT22;29507;51.284;5.758;2023-04-29T13:47:02;15.70;99.90
43858;DHT22;29507;51.284;5.758;2023-04-29T13:49:28;15.80;99.90
43858;DHT22;29507;51.284;5.758;2023-04-29T13:51:54;16.00;99.90
43858;DHT22;29507;51.284;5.758;2023-04-29T13:54:19;16.10;99.90
43858;DHT22;29507;51.284;5.758;2023-04-29T13:56:48;16.30;99.90
43858;DHT22;29507;51.284;5.758;2023-04-29T13:59:14;16.60;99.90
43858;DHT22;29507;51.284;5.758;2023-04-29T14:01:40;16.70;99.90
43858;DHT22;29507;51.284;5.758;2023-04-29T14:04:06;16.90;99.90
43858;DHT22;29507;51.284;5.758;2023-04-29T14:06:31;17.00;99.90
43858;DHT22;29507;51.284;5.758;2023-04-29T14:08:59;17.00;99.90
43858;DHT22;29507;51.284;5.758;2023-04-29T14:11:24;17.00;99.90
43858;DHT22;29507;51.284;5.758;2023-04-29T14:13:50;16.90;99.90
43858;DHT22;29507;51.284;5.758;2023-04-29T14:16:16;16.90;99.90
43858;DHT22;29507;51.284;5.758;2023-04-29T14:18:41;17.00;99.90
43858;DHT22;29507;51.284;5.758;2023-04-29T14:21:07;17.00;99.90
43858;DHT22;29507;51.284;5.758;2023-04-29T14:23:33;16.90;99.90
43858;DHT22;29507;51.284;5.758;2023-04-29T14:25:59;17.00;99.90
43858;DHT22;29507;51.284;5.758;2023-04-29T14:28:24;16.90;99.90
43858;DHT22;29507;51.284;5.758;2023-04-29T14:30:50;16.80;99.90
43858;DHT22;29507;51.284;5.758;2023-04-29T14:33:15;16.90;99.90
43858;DHT22;29507;51.284;5.758;2023-04-29T14:35:41;16.80;99.80
43858;DHT22;29507;51.284;5.758;2023-04-29T14:38:07;16.80;99.40
43858;DHT22;29507;51.284;5.758;2023-04-29T14:40:32;16.70;98.80
43858;DHT22;29507;51.284;5.758;2023-04-29T14:42:58;16.70;99.90
43858;DHT22;29507;51.284;5.758;2023-04-29T14:45:24;16.70;99.90
43858;DHT22;29507;51.284;5.758;2023-04-29T14:47:49;16.70;99.80
43858;DHT22;29507;51.284;5.758;2023-04-29T14:50:15;16.70;99.90
43858;DHT22;29507;51.284;5.758;2023-04-29T14:52:40;16.70;99.90
43858;DHT22;29507;51.284;5.758;2023-04-29T14:55:06;16.70;99.90
43858;DHT22;29507;51.284;5.758;2023-04-29T14:57:33;16.50;99.90
43858;DHT22;29507;51.284;5.758;2023-04-29T14:59:59;16.40;99.90
43858;DHT22;29507;51.284;5.758;2023-04-29T15:02:25;16.50;99.90
43858;DHT22;29507;51.284;5.758;2023-04-29T15:04:51;16.40;99.90
43858;DHT22;29507;51.284;5.758;2023-04-29T15:07:17;16.40;99.90
43858;DHT22;29507;51.284;5.758;2023-04-29T15:09:43;16.40;99.90
43858;DHT22;29507;51.284;5.758;2023-04-29T15:12:08;16.30;99.70
43858;DHT22;29507;51.284;5.758;2023-04-29T15:14:34;16.20;99.90
43858;DHT22;29507;51.284;5.758;2023-04-29T15:17:00;16.30;99.90
43858;DHT22;29507;51.284;5.758;2023-04-29T15:19:26;16.30;99.90
43858;DHT22;29507;51.284;5.758;2023-04-29T15:21:51;16.30;99.90
43858;DHT22;29507;51.284;5.758;2023-04-29T15:24:17;16.40;99.90
43858;DHT22;29507;51.284;5.758;2023-04-29T15:26:44;16.50;99.90
43858;DHT22;29507;51.284;5.758;2023-04-29T15:29:09;16.50;99.90
43858;DHT22;29507;51.284;5.758;2023-04-29T15:31:36;16.50;99.90
43858;DHT22;29507;51.284;5.758;2023-04-29T15:34:02;16.50;99.90
43858;DHT22;29507;51.284;5.758;2023-04-29T15:36:31;16.50;99.90
43858;DHT22;29507;51.284;5.758;2023-04-29T15:39:00;16.50;99.90
43858;DHT22;29507;51.284;5.758;2023-04-29T15:41:25;16.40;99.90
43858;DHT22;29507;51.284;5.758;2023-04-29T15:43:51;16.50;99.90
43858;DHT22;29507;51.284;5.758;2023-04-29T15:46:17;16.50;99.90
43858;DHT22;29507;51.284;5.758;2023-04-29T15:48:43;16.60;99.80
43858;DHT22;29507;51.284;5.758;2023-04-29T15:51:09;16.60;99.90
43858;DHT22;29507;51.284;5.758;2023-04-29T15:53:34;16.70;99.90
43858;DHT22;29507;51.284;5.758;2023-04-29T15:56:00;16.90;99.90
43858;DHT22;29507;51.284;5.758;2023-04-29T15:58:26;17.10;99.90
43858;DHT22;29507;51.284;5.758;2023-04-29T16:00:52;17.10;99.90
43858;DHT22;29507;51.284;5.758;2023-04-29T16:03:17;17.20;99.40